Flight Track Log - Related Links

Times and Time Zones

All times are in EDT time to prevent confusion due to time zone crossing. See the ASQ4602 flight status page for this flight to view local times or setup timezone preferences in your user account.

Time Position Orientation Groundspeed Altitude Reporting Facility
EDT Latitude Longitude Course Direction KTS MPH feet Rate Location/Type
Fri 08:56:03 PM 36.2292 -94.3056 352° North 170 196 4,000  Level Kansas City Center
Fri 08:57:05 PM 36.2200 -94.3586 258° West 249 287 7,000 2,952 Climbing Kansas City Center
Fri 08:58:07 PM 36.2836 -94.3728 350° North 238 274 10,100 2,780 Climbing Kansas City Center
Fri 08:59:08 PM 36.3758 -94.3836 355° North 267 307 12,700 2,488 Climbing Kansas City Center
Fri 09:00:10 PM 36.4592 -94.3603 13° North 309 356 15,200 2,032 Climbing Kansas City Center
Fri 09:01:00 PM 36.5036 -94.3478 352° North  Level FlightAware Approximate
Fri 09:01:12 PM 36.5331 -94.2817 41° Northeast 341 392 16,900  Level Kansas City Center
Fri 09:02:13 PM 36.6103 -94.1939 42° Northeast 368 423 18,400 1,463 Climbing Kansas City Center
Fri 09:03:15 PM 36.6928 -94.1006 42° Northeast 389 448 19,900 1,452 Climbing Kansas City Center
Fri 09:04:17 PM 36.7781 -94.0022 43° Northeast 408 470 21,400 1,452 Climbing Kansas City Center
Fri 09:05:19 PM 36.8656 -93.9039 42° Northeast 419 482 22,900 1,707 Climbing Kansas City Center
Fri 09:06:20 PM 36.9689 -93.7800 44° Northeast 425 489 24,900 1,902 Climbing Kansas City Center
Fri 09:07:22 PM 37.0550 -93.6744 44° Northeast 426 490 26,800 1,887 Climbing Kansas City Center
Fri 09:08:24 PM 37.1236 -93.5564 54° Northeast 424 488 28,800 1,854 Climbing Kansas City Center
Fri 09:09:25 PM 37.1892 -93.4372 55° Northeast 418 481 30,600 1,659 Climbing Kansas City Center
Fri 09:10:27 PM 37.2583 -93.3225 53° Northeast 417 480 32,200 1,597 Climbing Kansas City Center
Fri 09:11:29 PM 37.3264 -93.2064 54° Northeast 412 474 33,900 1,366 Climbing Kansas City Center
Fri 09:12:30 PM 37.3931 -93.0914 54° Northeast 412 474 35,000 537 Climbing Kansas City Center
Fri 09:13:32 PM 37.4569 -92.9636 58° Northeast 422 486 35,000  Level Kansas City Center
Fri 09:14:34 PM 37.5275 -92.7828 64° Northeast 469 540 35,000  Level Kansas City Center
Fri 09:15:36 PM 37.5894 -92.6264 63° Northeast 486 559 35,000  Level Kansas City Center
Fri 09:16:37 PM 37.6500 -92.4697 64° Northeast 494 568 35,000  Level Kansas City Center
Fri 09:17:39 PM 37.7125 -92.3097 64° Northeast 505 581 35,000  Level Kansas City Center
Fri 09:18:41 PM 37.7717 -92.1547 64° Northeast 496 571 35,000  Level Kansas City Center
Fri 09:19:42 PM 37.8308 -92.0017 64° Northeast 495 570 35,000  Level Kansas City Center
Fri 09:20:44 PM 37.9047 -91.8147 63° Northeast 495 570 35,000  Level Kansas City Center
Fri 09:21:46 PM 37.9642 -91.6572 64° Northeast 496 571 35,000  Level Kansas City Center
Fri 09:22:47 PM 38.0242 -91.4997 64° Northeast 495 570 35,000  Level Kansas City Center
Fri 09:23:49 PM 38.0867 -91.3403 63° Northeast 498 573 35,000  Level Kansas City Center
Fri 09:24:51 PM 38.1456 -91.1789 65° Northeast 500 575 35,000  Level Kansas City Center
Fri 09:25:52 PM 38.2083 -91.0144 64° Northeast 501 577 35,000  Level Kansas City Center
Fri 09:26:54 PM 38.2683 -90.8517 65° Northeast 505 581 35,000  Level Kansas City Center
Fri 09:27:55 PM 38.3278 -90.6872 65° Northeast 510 587 35,000  Level Kansas City Center
Fri 09:28:57 PM 38.4000 -90.4922 65° Northeast 511 588 35,000  Level Kansas City Center
Fri 09:29:59 PM 38.4597 -90.3300 65° Northeast 509 586 35,000  Level Kansas City Center
Fri 09:31:00 PM 38.5178 -90.1681 65° Northeast 504 580 35,000  Level Kansas City Center
Fri 09:32:02 PM 38.5783 -90.0036 65° Northeast 509 586 35,000  Level Kansas City Center
Fri 09:33:03 PM 38.6372 -89.8381 65° Northeast 513 590 35,000  Level Kansas City Center
Fri 09:34:05 PM 38.6900 -89.6908 65° Northeast 501 577 35,000  Level Kansas City Center
Fri 09:35:07 PM 38.7597 -89.5017 65° Northeast 504 580 35,000  Level Kansas City Center
Fri 09:36:08 PM 38.8167 -89.3389 66° East 504 580 35,000  Level Kansas City Center
Fri 09:37:10 PM 38.8789 -89.1664 65° Northeast 511 588 35,000  Level Kansas City Center
Fri 09:38:11 PM 38.9331 -89.0058 67° East 511 588 35,000  Level Kansas City Center
Fri 09:39:13 PM 38.9956 -88.8369 64° Northeast 508 585 35,000  Level Kansas City Center
Fri 09:40:14 PM 39.0514 -88.6714 66° East 508 585 35,000  Level Kansas City Center
Fri 09:41:16 PM 39.1147 -88.4833 66° East 507 583 35,000  Level Kansas City Center
Fri 09:42:17 PM 39.1725 -88.3175 66° East 507 583 35,000  Level Kansas City Center
Fri 09:43:19 PM 39.2283 -88.1492 67° East 507 583 35,000  Level Kansas City Center
Fri 09:44:20 PM 39.2856 -87.9819 66° East 506 582 35,000  Level Kansas City Center
Fri 09:45:22 PM 39.3419 -87.8139 67° East 506 582 35,000  Level Kansas City Center
Fri 09:46:23 PM 39.3975 -87.6458 67° East 506 582 35,000  Level Kansas City Center
Fri 09:47:46 PM 39.4731 -87.4197 67° East 510 587 35,000  Level Indianapolis Center
Fri 09:48:47 PM 39.5392 -87.2183 67° East 510 587 35,000  Level Indianapolis Center
Fri 09:49:49 PM 39.5936 -87.0511 67° East 508 585 35,000  Level Indianapolis Center
Fri 09:50:50 PM 39.6478 -86.8839 67° East 508 585 35,000  Level Indianapolis Center
Fri 09:51:51 PM 39.7017 -86.7189 67° East 501 577 35,000  Level Indianapolis Center
Fri 09:52:53 PM 39.7550 -86.5536 67° East 499 574 35,000  Level Indianapolis Center
Fri 09:53:54 PM 39.8081 -86.3856 68° East 498 573 35,000  Level Indianapolis Center
Fri 09:54:55 PM 39.8503 -86.2039 73° East 496 571 35,000  Level Indianapolis Center
Fri 09:55:56 PM 39.8869 -86.0281 75° East 498 573 35,000  Level Indianapolis Center
Fri 09:56:58 PM 39.9239 -85.8525 75° East 499 574 35,000  Level Indianapolis Center
Fri 09:57:59 PM 39.9611 -85.6739 75° East 505 581 35,000  Level Indianapolis Center
Fri 09:59:00 PM 39.9981 -85.4942 75° East 510 587 35,000  Level Indianapolis Center
Fri 10:00:02 PM 40.0350 -85.3139 75° East 511 588 35,000 146 Level Indianapolis Center
Fri 10:01:03 PM 40.0872 -85.1436 68° East 510 587 35,300 885 Climbing Indianapolis Center
Fri 10:02:04 PM 40.1497 -84.9919 62° Northeast 484 557 36,800 836 Climbing Indianapolis Center
Fri 10:03:05 PM 40.2189 -84.8217 62° Northeast 475 547 37,000 98 Climbing Indianapolis Center
Fri 10:04:06 PM 40.2806 -84.6644 63° Northeast 480 552 37,000  Level Indianapolis Center
Fri 10:05:08 PM 40.3450 -84.5069 62° Northeast 487 560 37,000  Level Indianapolis Center
Fri 10:06:09 PM 40.4078 -84.3431 63° Northeast 496 571 37,000  Level Indianapolis Center
Fri 10:07:10 PM 40.4483 -84.1633 73° East 509 586 37,000  Level Indianapolis Center
Fri 10:08:11 PM 40.4844 -83.9828 75° East 510 587 37,000  Level Indianapolis Center
Fri 10:09:12 PM 40.5211 -83.8019 75° East 510 587 37,000  Level Indianapolis Center
Fri 10:10:14 PM 40.5564 -83.6208 76° East 510 587 37,000  Level Indianapolis Center
Fri 10:11:15 PM 40.5989 -83.4061 75° East 509 586 37,000  Level Indianapolis Center
Fri 10:12:16 PM 40.6331 -83.2292 76° East 503 579 37,000  Level Indianapolis Center
Fri 10:13:17 PM 40.6658 -83.0603 76° East 503 579 37,000  Level Indianapolis Center
Fri 10:14:18 PM 40.6997 -82.8794 76° East 503 579 37,000  Level Indianapolis Center
Fri 10:15:20 PM 40.7333 -82.6975 76° East 504 580 37,000  Level Indianapolis Center
Fri 10:16:21 PM 40.7678 -82.5142 76° East 507 583 37,000  Level Indianapolis Center
Fri 10:17:22 PM 40.8017 -82.3328 76° East 507 583 37,000  Level Indianapolis Center
Fri 10:18:23 PM 40.8344 -82.1550 76° East 506 582 37,000  Level Indianapolis Center
Fri 10:19:24 PM 40.8714 -81.9506 76° East 493 567 37,000  Level Indianapolis Center
Fri 10:20:25 PM 40.9036 -81.7719 77° East 494 568 37,000  Level Indianapolis Center
Fri 10:21:26 PM 40.9350 -81.5922 77° East 501 577 37,000  Level Indianapolis Center
Fri 10:22:27 PM 40.9658 -81.4150 77° East 499 574 37,000  Level Indianapolis Center
Fri 10:23:28 PM 40.9969 -81.2378 77° East 497 572 37,000  Level Indianapolis Center
Fri 10:24:29 PM 41.0278 -81.0608 77° East 496 571 37,000  Level Indianapolis Center
Fri 10:25:30 PM 41.0581 -80.8839 77° East 493 567 37,000  Level Indianapolis Center
Fri 10:26:31 PM 41.0883 -80.7069 77° East 493 567 37,000  Level Indianapolis Center
Fri 10:27:43 PM 41.1219 -80.5000 78° East 489 563 37,000  Level Cleveland Center
Fri 10:28:45 PM 41.1511 -80.3269 77° East 485 558 37,000  Level Cleveland Center
Fri 10:29:46 PM 41.1786 -80.1514 78° East 485 558 37,000  Level Cleveland Center
Fri 10:30:47 PM 41.2072 -79.9819 77° East 480 552 37,000  Level Cleveland Center
Fri 10:31:48 PM 41.2358 -79.8119 77° East 477 549 37,000  Level Cleveland Center
Fri 10:32:50 PM 41.2631 -79.6356 78° East 477 549 37,000  Level Cleveland Center
Fri 10:33:51 PM 41.2897 -79.4622 78° East 478 550 37,000  Level Cleveland Center
Fri 10:34:52 PM 41.3200 -79.2617 79° East 477 549 37,000  Level Cleveland Center
Fri 10:35:53 PM 41.3478 -79.0911 78° East 471 542 37,000  Level Cleveland Center
Fri 10:36:55 PM 41.3742 -78.9108 79° East 475 547 37,000  Level Cleveland Center
Fri 10:37:56 PM 41.3967 -78.7439 80° East 475 547 37,000  Level Cleveland Center
Fri 10:38:57 PM 41.3933 -78.5675 91° East 475 547 37,000  Level Cleveland Center
Fri 10:39:58 PM 41.3889 -78.3908 92° East 475 547 37,000  Level Cleveland Center
Fri 10:41:00 PM 41.3847 -78.2142 92° East 475 547 37,000  Level Cleveland Center
Fri 10:42:01 PM 41.3803 -78.0389 92° East 475 547 37,000  Level Cleveland Center
Fri 10:43:02 PM 41.3747 -77.8633 92° East 475 547 37,000  Level Cleveland Center
Fri 10:44:03 PM 41.3556 -77.6572 97° East 472 543 37,000  Level Cleveland Center
Fri 10:45:04 PM 41.3297 -77.4906 102° East 465 535 37,000  Level Cleveland Center
Fri 10:46:05 PM 41.3028 -77.3217 102° East 466 536 37,000 -220 Level Cleveland Center
Fri 10:46:53 PM 41.2814 -77.1847 102° East 464 534 36,600 -9,908 Descending New York Center
Fri 10:47:54 PM 41.2550 -77.0192 102° East 464 534 19,000 -2,319 Descending New York Center
Fri 10:48:52 PM 41.2275 -76.8650 103° East 450 518 32,000 5,350 Climbing New York Center
Fri 10:49:54 PM 41.2025 -76.7028 102° East 444 511 29,700 -2,262 Descending New York Center
Fri 10:50:54 PM 41.1781 -76.5600 103° East 438 504 27,400 -2,339 Descending New York Center
Fri 10:51:52 PM 41.1542 -76.4119 102° East 431 496 25,100 -2,269 Descending New York Center
Fri 10:52:53 PM 41.1294 -76.2719 103° East 406 467 22,900 -2,100 Descending New York Center
Fri 10:53:52 PM 41.1067 -76.1325 102° East 394 453 20,900 -2,033 Descending New York Center
Fri 10:54:54 PM 41.0856 -75.9958 102° East 384 442 18,800 -2,182 Descending New York Center
Fri 10:55:53 PM 41.0608 -75.8481 102° East 378 435 16,500 -2,017 Descending New York Center
Fri 10:56:53 PM 41.0372 -75.7197 104° East 373 429 14,800 -1,636 Descending New York Center
Fri 10:57:54 PM 41.0169 -75.6028 103° East 344 396 13,200 -1,059 Descending New York Center
Fri 10:58:52 PM 40.9881 -75.4936 109° East 326 375 12,700 -1,119 Descending New York Center
Fri 10:59:52 PM 40.9589 -75.3900 110° East 313 360 11,000 -1,388 Descending New York Center
Fri 11:00:53 PM 40.9297 -75.2808 109° East 313 360 9,900 -1,041 Descending New York Center
Fri 11:01:53 PM 40.9019 -75.1883 112° Southeast 307 353 8,900 -992 Descending New York Center
Fri 11:02:54 PM 40.8761 -75.0933 110° East 290 334 7,900 -958 Descending New York Center
Fri 11:03:52 PM 40.8700 -74.9778 94° East 278 320 7,000 -454 Descending New York Center
Fri 11:04:53 PM 40.8653 -74.8758 93° East 278 320 7,000 -298 Level New York Center
Fri 11:05:53 PM 40.8831 -74.7836 76° East 284 327 6,400 -496 Descending New York Center
Fri 11:06:54 PM 40.9117 -74.6756 71° East 284 327 6,000 -200 Descending New York Center
Fri 11:07:53 PM 40.9661 -74.6044 45° Northeast 279 321 6,000 -252 Level New York Center
Fri 11:08:53 PM 41.0250 -74.5225 46° Northeast 285 328 5,500 -756 Descending New York Center
Fri 11:09:52 PM 41.0750 -74.4564 45° Northeast 265 305 4,500 -750 Descending New York Center
Fri 11:10:53 PM 41.1061 -74.3950 56° Northeast 243 280 4,000 -248 Descending New York Center
Fri 11:11:53 PM 41.1022 -74.3150 94° East 195 224 4,000  Level New York Center
Fri 11:12:57 PM 41.0833 -74.2500 111° Southeast 191 220 4,000  Level New York TRACON
Fri 11:13:57 PM 41.0667 -74.2000 114° Southeast 176 203 4,000 -368 Level New York TRACON
Fri 11:14:51 PM 41.0333 -74.1500 131° Southeast 169 194 3,300 -526 Descending New York TRACON
Fri 11:15:51 PM 41.0000 -74.1167 143° Southeast 161 185 3,000 -150 Descending New York TRACON
Fri 11:16:51 PM 40.9500 -74.1167 180° South 146 168 3,000  Level New York TRACON
Fri 11:17:57 PM 40.9167 -74.1000 159° South 149 171 3,000 -48 Level New York TRACON
Fri 11:18:57 PM 40.8667 -74.0833 166° South 151 174 2,900 -250 Descending New York TRACON
Fri 11:19:57 PM 40.8333 -74.0833 180° South 147 169 2,500 -400 Descending New York TRACON
Fri 11:20:57 PM 40.7833 -74.1000 194° South 148 170 2,100 -550 Descending New York TRACON
Fri 11:21:57 PM 40.7500 -74.1167 201° Southwest 133 153 1,400 -700 Descending New York TRACON
Fri 11:22:57 PM 40.7167 -74.1500 217° Southwest 130 150 700 -700 Descending New York TRACON

Login

Don't have an account? Register now (free) for customized features, flight alerts, and more!